sensor_id;sensor_type;location;lat;lon;timestamp;P1;P2;P0
56360;PMS7003;42611;51.132;13.588;2022-08-04T00:04:04;15.7;15.5;
56360;PMS7003;42611;51.132;13.588;2022-08-04T00:09:02;16.5;15.7;
56360;PMS7003;42611;51.132;13.588;2022-08-04T00:14:05;16.1;15.5;
56360;PMS7003;42611;51.132;13.588;2022-08-04T00:19:04;16.0;15.4;
56360;PMS7003;42611;51.132;13.588;2022-08-04T00:24:13;15.8;15.2;
56360;PMS7003;42611;51.132;13.588;2022-08-04T00:29:01;16.1;15.4;
56360;PMS7003;42611;51.132;13.588;2022-08-04T00:34:01;15.8;15.7;
56360;PMS7003;42611;51.132;13.588;2022-08-04T00:39:04;17.1;17.0;
56360;PMS7003;42611;51.132;13.588;2022-08-04T00:44:08;18.0;18.0;
56360;PMS7003;42611;51.132;13.588;2022-08-04T00:49:21;18.4;18.3;
56360;PMS7003;42611;51.132;13.588;2022-08-04T00:54:05;19.4;19.0;
56360;PMS7003;42611;51.132;13.588;2022-08-04T00:59:03;19.7;19.0;
56360;PMS7003;42611;51.132;13.588;2022-08-04T01:04:05;18.7;18.0;
56360;PMS7003;42611;51.132;13.588;2022-08-04T01:09:03;18.8;17.6;
56360;PMS7003;42611;51.132;13.588;2022-08-04T01:14:07;19.9;18.4;
56360;PMS7003;42611;51.132;13.588;2022-08-04T01:19:11;18.2;16.9;
56360;PMS7003;42611;51.132;13.588;2022-08-04T01:25:43;18.0;17.1;
56360;PMS7003;42611;51.132;13.588;2022-08-04T01:29:03;18.2;17.2;
56360;PMS7003;42611;51.132;13.588;2022-08-04T01:34:05;18.0;17.4;
56360;PMS7003;42611;51.132;13.588;2022-08-04T01:39:02;16.6;16.3;
56360;PMS7003;42611;51.132;13.588;2022-08-04T01:44:01;18.2;17.7;
56360;PMS7003;42611;51.132;13.588;2022-08-04T01:49:01;18.5;17.7;
56360;PMS7003;42611;51.132;13.588;2022-08-04T01:54:01;19.4;18.8;
56360;PMS7003;42611;51.132;13.588;2022-08-04T01:59:02;20.0;19.2;
56360;PMS7003;42611;51.132;13.588;2022-08-04T02:04:24;20.7;19.9;
56360;PMS7003;42611;51.132;13.588;2022-08-04T02:09:03;20.4;19.8;
56360;PMS7003;42611;51.132;13.588;2022-08-04T02:15:11;20.2;19.6;
56360;PMS7003;42611;51.132;13.588;2022-08-04T02:19:15;19.6;18.9;
56360;PMS7003;42611;51.132;13.588;2022-08-04T02:24:04;19.3;18.8;
56360;PMS7003;42611;51.132;13.588;2022-08-04T02:29:07;20.0;19.4;
56360;PMS7003;42611;51.132;13.588;2022-08-04T02:34:06;20.7;20.0;
56360;PMS7003;42611;51.132;13.588;2022-08-04T02:39:03;20.9;20.6;
56360;PMS7003;42611;51.132;13.588;2022-08-04T02:44:03;20.2;20.0;
56360;PMS7003;42611;51.132;13.588;2022-08-04T02:49:03;20.3;19.6;
56360;PMS7003;42611;51.132;13.588;2022-08-04T02:54:02;20.4;19.2;
56360;PMS7003;42611;51.132;13.588;2022-08-04T02:59:03;19.6;18.5;
56360;PMS7003;42611;51.132;13.588;2022-08-04T03:04:10;19.8;18.7;
56360;PMS7003;42611;51.132;13.588;2022-08-04T03:09:18;20.4;19.1;
56360;PMS7003;42611;51.132;13.588;2022-08-04T03:19:10;19.1;18.8;
56360;PMS7003;42611;51.132;13.588;2022-08-04T03:24:07;19.8;19.4;
56360;PMS7003;42611;51.132;13.588;2022-08-04T03:29:22;19.4;18.8;
56360;PMS7003;42611;51.132;13.588;2022-08-04T03:49:09;20.0;19.4;
56360;PMS7003;42611;51.132;13.588;2022-08-04T03:59:08;20.3;20.0;
56360;PMS7003;42611;51.132;13.588;2022-08-04T04:04:38;19.2;18.9;
56360;PMS7003;42611;51.132;13.588;2022-08-04T04:10:29;18.7;18.2;
56360;PMS7003;42611;51.132;13.588;2022-08-04T04:14:11;19.1;18.5;
56360;PMS7003;42611;51.132;13.588;2022-08-04T04:24:05;18.0;17.3;
56360;PMS7003;42611;51.132;13.588;2022-08-04T04:34:15;19.4;18.5;
56360;PMS7003;42611;51.132;13.588;2022-08-04T04:39:22;18.7;17.9;
56360;PMS7003;42611;51.132;13.588;2022-08-04T04:44:25;18.5;17.9;
56360;PMS7003;42611;51.132;13.588;2022-08-04T04:49:35;18.9;18.4;
56360;PMS7003;42611;51.132;13.588;2022-08-04T04:54:25;18.4;18.1;
56360;PMS7003;42611;51.132;13.588;2022-08-04T04:59:02;17.9;17.9;
56360;PMS7003;42611;51.132;13.588;2022-08-04T05:04:22;18.3;18.2;
56360;PMS7003;42611;51.132;13.588;2022-08-04T05:09:06;18.6;18.5;
56360;PMS7003;42611;51.132;13.588;2022-08-04T05:14:40;18.1;18.0;
56360;PMS7003;42611;51.132;13.588;2022-08-04T05:19:19;17.7;17.6;
56360;PMS7003;42611;51.132;13.588;2022-08-04T05:24:07;18.0;17.7;
56360;PMS7003;42611;51.132;13.588;2022-08-04T05:29:03;17.6;17.4;
56360;PMS7003;42611;51.132;13.588;2022-08-04T05:34:08;17.8;17.4;
56360;PMS7003;42611;51.132;13.588;2022-08-04T05:39:06;17.5;17.0;
56360;PMS7003;42611;51.132;13.588;2022-08-04T05:49:01;16.5;15.7;
56360;PMS7003;42611;51.132;13.588;2022-08-04T05:54:02;16.0;15.1;
56360;PMS7003;42611;51.132;13.588;2022-08-04T05:59:04;15.6;15.0;
56360;PMS7003;42611;51.132;13.588;2022-08-04T06:04:13;16.1;15.2;
56360;PMS7003;42611;51.132;13.588;2022-08-04T06:09:02;16.2;15.4;
56360;PMS7003;42611;51.132;13.588;2022-08-04T06:14:05;16.0;15.0;
56360;PMS7003;42611;51.132;13.588;2022-08-04T06:19:33;15.4;14.5;
56360;PMS7003;42611;51.132;13.588;2022-08-04T06:24:06;14.6;13.5;
56360;PMS7003;42611;51.132;13.588;2022-08-04T06:29:02;14.8;14.0;
56360;PMS7003;42611;51.132;13.588;2022-08-04T06:34:02;12.3;12.0;
56360;PMS7003;42611;51.132;13.588;2022-08-04T06:39:03;12.4;12.1;
56360;PMS7003;42611;51.132;13.588;2022-08-04T06:44:05;13.2;12.8;
56360;PMS7003;42611;51.132;13.588;2022-08-04T06:49:02;13.7;13.2;
56360;PMS7003;42611;51.132;13.588;2022-08-04T06:54:02;12.5;12.0;
56360;PMS7003;42611;51.132;13.588;2022-08-04T06:59:03;14.1;13.6;
56360;PMS7003;42611;51.132;13.588;2022-08-04T07:04:03;14.2;13.9;
56360;PMS7003;42611;51.132;13.588;2022-08-04T07:09:01;13.5;13.0;
56360;PMS7003;42611;51.132;13.588;2022-08-04T07:14:02;13.6;13.1;
56360;PMS7003;42611;51.132;13.588;2022-08-04T07:19:19;14.2;13.6;
56360;PMS7003;42611;51.132;13.588;2022-08-04T07:24:01;14.6;13.8;
56360;PMS7003;42611;51.132;13.588;2022-08-04T07:29:01;13.8;13.0;
56360;PMS7003;42611;51.132;13.588;2022-08-04T07:34:17;13.9;13.4;
56360;PMS7003;42611;51.132;13.588;2022-08-04T07:39:03;13.0;12.7;
56360;PMS7003;42611;51.132;13.588;2022-08-04T07:44:03;12.0;11.8;
56360;PMS7003;42611;51.132;13.588;2022-08-04T07:49:02;11.1;11.1;
56360;PMS7003;42611;51.132;13.588;2022-08-04T07:54:03;12.0;11.9;
56360;PMS7003;42611;51.132;13.588;2022-08-04T08:04:05;12.3;11.8;
56360;PMS7003;42611;51.132;13.588;2022-08-04T08:09:15;12.9;12.4;
56360;PMS7003;42611;51.132;13.588;2022-08-04T08:19:02;12.1;11.7;
56360;PMS7003;42611;51.132;13.588;2022-08-04T08:24:02;11.4;11.3;
56360;PMS7003;42611;51.132;13.588;2022-08-04T08:29:02;11.6;11.4;
56360;PMS7003;42611;51.132;13.588;2022-08-04T08:34:02;10.8;10.6;
56360;PMS7003;42611;51.132;13.588;2022-08-04T08:44:55;11.2;10.5;
56360;PMS7003;42611;51.132;13.588;2022-08-04T08:49:22;11.7;10.9;
56360;PMS7003;42611;51.132;13.588;2022-08-04T08:55:12;11.3;10.7;
56360;PMS7003;42611;51.132;13.588;2022-08-04T08:59:36;11.6;11.0;
56360;PMS7003;42611;51.132;13.588;2022-08-04T09:04:09;10.8;10.4;
56360;PMS7003;42611;51.132;13.588;2022-08-04T09:14:07;9.0;9.0;
56360;PMS7003;42611;51.132;13.588;2022-08-04T09:19:04;8.0;7.8;
56360;PMS7003;42611;51.132;13.588;2022-08-04T09:24:06;7.5;7.2;
56360;PMS7003;42611;51.132;13.588;2022-08-04T09:30:07;7.7;7.4;
56360;PMS7003;42611;51.132;13.588;2022-08-04T09:34:08;7.4;7.1;
56360;PMS7003;42611;51.132;13.588;2022-08-04T09:39:03;7.7;7.3;
56360;PMS7003;42611;51.132;13.588;2022-08-04T09:44:51;7.4;7.3;
56360;PMS7003;42611;51.132;13.588;2022-08-04T09:55:30;6.8;6.8;
56360;PMS7003;42611;51.132;13.588;2022-08-04T09:59:09;6.1;6.1;
56360;PMS7003;42611;51.132;13.588;2022-08-04T10:04:02;5.7;5.7;
56360;PMS7003;42611;51.132;13.588;2022-08-04T10:09:31;5.9;5.8;
56360;PMS7003;42611;51.132;13.588;2022-08-04T10:24:09;5.8;5.7;
56360;PMS7003;42611;51.132;13.588;2022-08-04T10:29:03;6.1;5.8;
56360;PMS7003;42611;51.132;13.588;2022-08-04T10:34:04;6.7;6.6;
56360;PMS7003;42611;51.132;13.588;2022-08-04T10:39:09;6.3;6.2;
56360;PMS7003;42611;51.132;13.588;2022-08-04T10:49:08;6.0;5.7;
56360;PMS7003;42611;51.132;13.588;2022-08-04T10:54:02;6.2;6.0;
56360;PMS7003;42611;51.132;13.588;2022-08-04T10:59:05;5.8;5.7;
56360;PMS7003;42611;51.132;13.588;2022-08-04T11:04:04;6.6;6.5;
56360;PMS7003;42611;51.132;13.588;2022-08-04T11:09:02;7.1;7.1;
56360;PMS7003;42611;51.132;13.588;2022-08-04T11:14:03;7.8;7.8;
56360;PMS7003;42611;51.132;13.588;2022-08-04T11:19:05;8.0;8.0;
56360;PMS7003;42611;51.132;13.588;2022-08-04T11:24:02;8.1;8.1;
56360;PMS7003;42611;51.132;13.588;2022-08-04T11:29:10;8.3;8.3;
56360;PMS7003;42611;51.132;13.588;2022-08-04T11:34:18;9.3;8.9;
56360;PMS7003;42611;51.132;13.588;2022-08-04T11:39:12;9.2;8.8;
56360;PMS7003;42611;51.132;13.588;2022-08-04T11:49:07;9.4;9.0;
56360;PMS7003;42611;51.132;13.588;2022-08-04T11:54:01;9.5;9.1;
56360;PMS7003;42611;51.132;13.588;2022-08-04T11:59:04;8.7;8.7;
56360;PMS7003;42611;51.132;13.588;2022-08-04T12:05:07;9.0;9.0;
56360;PMS7003;42611;51.132;13.588;2022-08-04T12:14:08;9.3;9.3;
56360;PMS7003;42611;51.132;13.588;2022-08-04T12:19:16;9.4;9.4;
56360;PMS7003;42611;51.132;13.588;2022-08-04T12:24:04;9.8;9.7;
56360;PMS7003;42611;51.132;13.588;2022-08-04T12:29:12;10.0;10.0;
56360;PMS7003;42611;51.132;13.588;2022-08-04T12:34:14;10.1;10.0;
56360;PMS7003;42611;51.132;13.588;2022-08-04T12:39:05;10.0;9.9;
56360;PMS7003;42611;51.132;13.588;2022-08-04T12:44:03;9.6;9.6;
56360;PMS7003;42611;51.132;13.588;2022-08-04T12:49:02;9.4;9.4;
56360;PMS7003;42611;51.132;13.588;2022-08-04T12:54:01;8.7;8.7;
56360;PMS7003;42611;51.132;13.588;2022-08-04T12:59:07;8.8;8.8;
56360;PMS7003;42611;51.132;13.588;2022-08-04T13:04:03;9.0;9.0;
56360;PMS7003;42611;51.132;13.588;2022-08-04T13:09:03;9.4;9.1;
56360;PMS7003;42611;51.132;13.588;2022-08-04T13:19:06;10.2;9.9;
56360;PMS7003;42611;51.132;13.588;2022-08-04T13:24:16;10.1;9.8;
56360;PMS7003;42611;51.132;13.588;2022-08-04T13:34:03;10.3;10.3;
56360;PMS7003;42611;51.132;13.588;2022-08-04T13:44:18;10.6;10.4;
56360;PMS7003;42611;51.132;13.588;2022-08-04T13:49:17;10.2;10.1;
56360;PMS7003;42611;51.132;13.588;2022-08-04T13:54:01;10.4;10.0;
56360;PMS7003;42611;51.132;13.588;2022-08-04T13:59:02;11.0;10.6;
56360;PMS7003;42611;51.132;13.588;2022-08-04T14:09:16;10.7;10.2;
56360;PMS7003;42611;51.132;13.588;2022-08-04T14:15:02;10.9;10.2;
56360;PMS7003;42611;51.132;13.588;2022-08-04T14:20:02;10.5;10.1;
56360;PMS7003;42611;51.132;13.588;2022-08-04T14:25:21;9.5;9.1;
56360;PMS7003;42611;51.132;13.588;2022-08-04T14:30:02;9.7;9.2;
56360;PMS7003;42611;51.132;13.588;2022-08-04T14:35:10;9.6;8.9;
56360;PMS7003;42611;51.132;13.588;2022-08-04T14:40:27;10.4;9.9;
56360;PMS7003;42611;51.132;13.588;2022-08-04T14:45:02;10.4;9.9;
56360;PMS7003;42611;51.132;13.588;2022-08-04T14:50:01;10.8;10.3;
56360;PMS7003;42611;51.132;13.588;2022-08-04T14:55:21;10.4;10.2;
56360;PMS7003;42611;51.132;13.588;2022-08-04T15:00:31;10.6;10.6;
56360;PMS7003;42611;51.132;13.588;2022-08-04T15:05:16;9.5;9.5;
56360;PMS7003;42611;51.132;13.588;2022-08-04T15:10:01;9.7;9.7;
56360;PMS7003;42611;51.132;13.588;2022-08-04T15:15:32;9.7;9.7;
56360;PMS7003;42611;51.132;13.588;2022-08-04T15:20:02;9.5;9.5;
56360;PMS7003;42611;51.132;13.588;2022-08-04T15:25:01;10.6;10.6;
56360;PMS7003;42611;51.132;13.588;2022-08-04T15:30:06;11.0;11.0;
56360;PMS7003;42611;51.132;13.588;2022-08-04T15:35:03;11.4;11.4;
56360;PMS7003;42611;51.132;13.588;2022-08-04T15:45:19;12.1;11.8;
56360;PMS7003;42611;51.132;13.588;2022-08-04T15:50:04;11.3;11.1;
56360;PMS7003;42611;51.132;13.588;2022-08-04T16:00:05;10.6;10.2;
56360;PMS7003;42611;51.132;13.588;2022-08-04T16:05:34;10.2;9.8;
56360;PMS7003;42611;51.132;13.588;2022-08-04T16:10:34;10.1;9.8;
56360;PMS7003;42611;51.132;13.588;2022-08-04T16:16:33;10.0;9.7;
56360;PMS7003;42611;51.132;13.588;2022-08-04T16:20:03;10.2;10.2;
56360;PMS7003;42611;51.132;13.588;2022-08-04T16:25:01;10.4;10.4;
56360;PMS7003;42611;51.132;13.588;2022-08-04T16:30:04;10.8;10.8;
56360;PMS7003;42611;51.132;13.588;2022-08-04T16:35:03;10.5;10.5;
56360;PMS7003;42611;51.132;13.588;2022-08-04T16:40:34;9.8;9.8;
56360;PMS7003;42611;51.132;13.588;2022-08-04T16:45:11;9.9;9.9;
56360;PMS7003;42611;51.132;13.588;2022-08-04T16:50:01;10.3;10.3;
56360;PMS7003;42611;51.132;13.588;2022-08-04T16:55:02;10.2;10.2;
56360;PMS7003;42611;51.132;13.588;2022-08-04T17:00:03;10.0;10.0;
56360;PMS7003;42611;51.132;13.588;2022-08-04T17:05:24;11.1;11.1;
56360;PMS7003;42611;51.132;13.588;2022-08-04T17:10:02;11.3;11.3;
56360;PMS7003;42611;51.132;13.588;2022-08-04T17:15:02;11.1;11.1;
56360;PMS7003;42611;51.132;13.588;2022-08-04T17:20:01;12.5;12.5;
56360;PMS7003;42611;51.132;13.588;2022-08-04T17:25:01;13.1;13.1;
56360;PMS7003;42611;51.132;13.588;2022-08-04T17:30:03;12.9;12.9;
56360;PMS7003;42611;51.132;13.588;2022-08-04T17:35:05;12.7;12.7;
56360;PMS7003;42611;51.132;13.588;2022-08-04T17:40:05;13.1;13.0;
56360;PMS7003;42611;51.132;13.588;2022-08-04T17:45:27;11.8;11.4;
56360;PMS7003;42611;51.132;13.588;2022-08-04T18:10:34;12.6;12.6;
56360;PMS7003;42611;51.132;13.588;2022-08-04T18:15:07;12.8;12.8;
56360;PMS7003;42611;51.132;13.588;2022-08-04T18:20:03;12.5;11.9;
56360;PMS7003;42611;51.132;13.588;2022-08-04T18:25:05;12.2;11.7;
56360;PMS7003;42611;51.132;13.588;2022-08-04T18:30:32;11.6;11.3;
56360;PMS7003;42611;51.132;13.588;2022-08-04T18:36:32;11.4;10.8;
56360;PMS7003;42611;51.132;13.588;2022-08-04T18:41:01;11.7;11.2;
56360;PMS7003;42611;51.132;13.588;2022-08-04T18:46:14;13.0;12.1;
56360;PMS7003;42611;51.132;13.588;2022-08-04T18:51:16;12.6;11.5;
56360;PMS7003;42611;51.132;13.588;2022-08-04T18:56:03;12.7;11.6;
56360;PMS7003;42611;51.132;13.588;2022-08-04T19:01:01;12.0;11.2;
56360;PMS7003;42611;51.132;13.588;2022-08-04T19:06:02;11.4;10.5;
56360;PMS7003;42611;51.132;13.588;2022-08-04T19:11:17;10.0;9.8;
56360;PMS7003;42611;51.132;13.588;2022-08-04T19:16:03;10.1;10.0;
56360;PMS7003;42611;51.132;13.588;2022-08-04T19:21:06;9.8;9.6;
56360;PMS7003;42611;51.132;13.588;2022-08-04T19:26:28;10.1;9.8;
56360;PMS7003;42611;51.132;13.588;2022-08-04T19:31:03;9.8;9.4;
56360;PMS7003;42611;51.132;13.588;2022-08-04T19:36:06;9.6;9.2;
56360;PMS7003;42611;51.132;13.588;2022-08-04T19:41:01;9.7;9.2;
56360;PMS7003;42611;51.132;13.588;2022-08-04T19:46:01;10.0;9.5;
56360;PMS7003;42611;51.132;13.588;2022-08-04T19:51:04;9.9;9.4;
56360;PMS7003;42611;51.132;13.588;2022-08-04T19:56:01;10.1;9.8;
56360;PMS7003;42611;51.132;13.588;2022-08-04T20:01:02;9.6;9.3;
56360;PMS7003;42611;51.132;13.588;2022-08-04T20:06:01;9.3;9.0;
56360;PMS7003;42611;51.132;13.588;2022-08-04T20:11:01;9.4;9.4;
56360;PMS7003;42611;51.132;13.588;2022-08-04T20:16:02;10.1;9.7;
56360;PMS7003;42611;51.132;13.588;2022-08-04T20:21:02;9.8;9.5;
56360;PMS7003;42611;51.132;13.588;2022-08-04T20:26:01;10.4;9.8;
56360;PMS7003;42611;51.132;13.588;2022-08-04T20:31:02;10.2;9.7;
56360;PMS7003;42611;51.132;13.588;2022-08-04T20:36:10;9.8;9.2;
56360;PMS7003;42611;51.132;13.588;2022-08-04T20:41:01;10.4;10.2;
56360;PMS7003;42611;51.132;13.588;2022-08-04T20:46:17;10.7;10.4;
56360;PMS7003;42611;51.132;13.588;2022-08-04T20:51:01;10.6;10.6;
56360;PMS7003;42611;51.132;13.588;2022-08-04T20:56:03;11.0;11.0;
56360;PMS7003;42611;51.132;13.588;2022-08-04T21:01:11;11.9;11.5;
56360;PMS7003;42611;51.132;13.588;2022-08-04T21:06:02;10.1;9.8;
56360;PMS7003;42611;51.132;13.588;2022-08-04T21:11:02;10.5;10.2;
56360;PMS7003;42611;51.132;13.588;2022-08-04T21:16:05;10.9;10.5;
56360;PMS7003;42611;51.132;13.588;2022-08-04T21:21:03;11.5;11.1;
56360;PMS7003;42611;51.132;13.588;2022-08-04T21:26:02;11.0;10.7;
56360;PMS7003;42611;51.132;13.588;2022-08-04T21:31:22;12.4;11.7;
56360;PMS7003;42611;51.132;13.588;2022-08-04T21:36:03;11.8;11.1;
56360;PMS7003;42611;51.132;13.588;2022-08-04T21:41:16;11.4;10.8;
56360;PMS7003;42611;51.132;13.588;2022-08-04T21:51:11;11.5;10.8;
56360;PMS7003;42611;51.132;13.588;2022-08-04T21:56:09;11.3;10.9;
56360;PMS7003;42611;51.132;13.588;2022-08-04T22:01:28;11.7;11.2;
56360;PMS7003;42611;51.132;13.588;2022-08-04T22:06:02;12.0;11.6;
56360;PMS7003;42611;51.132;13.588;2022-08-04T22:11:01;12.3;11.6;
56360;PMS7003;42611;51.132;13.588;2022-08-04T22:16:06;12.6;12.0;
56360;PMS7003;42611;51.132;13.588;2022-08-04T22:21:01;13.0;12.0;
56360;PMS7003;42611;51.132;13.588;2022-08-04T22:50:29;11.2;11.2;
56360;PMS7003;42611;51.132;13.588;2022-08-04T22:55:02;11.4;11.4;
56360;PMS7003;42611;51.132;13.588;2022-08-04T23:00:06;11.9;11.6;
56360;PMS7003;42611;51.132;13.588;2022-08-04T23:05:02;11.7;11.4;
56360;PMS7003;42611;51.132;13.588;2022-08-04T23:10:06;12.1;11.6;
56360;PMS7003;42611;51.132;13.588;2022-08-04T23:16:04;13.0;12.3;
56360;PMS7003;42611;51.132;13.588;2022-08-04T23:21:03;13.9;13.2;
56360;PMS7003;42611;51.132;13.588;2022-08-04T23:26:11;14.3;13.8;
56360;PMS7003;42611;51.132;13.588;2022-08-04T23:31:03;15.0;14.5;
56360;PMS7003;42611;51.132;13.588;2022-08-04T23:36:02;14.9;14.7;
56360;PMS7003;42611;51.132;13.588;2022-08-04T23:41:04;14.8;14.8;
56360;PMS7003;42611;51.132;13.588;2022-08-04T23:46:08;14.9;14.9;
56360;PMS7003;42611;51.132;13.588;2022-08-04T23:51:02;15.1;15.1;
